createdAt,value
2022-11-28T00:01:35.892Z,21.17
2022-11-28T00:04:04.902Z,21.75
2022-11-28T00:06:32.370Z,22.23
2022-11-28T00:09:00.780Z,21.60
2022-11-28T00:11:28.049Z,22.35
2022-11-28T00:13:55.619Z,22.85
2022-11-28T00:16:24.271Z,25.10
2022-11-28T00:18:53.853Z,24.50
2022-11-28T00:21:21.917Z,24.85
2022-11-28T00:23:49.752Z,24.65
2022-11-28T00:26:25.072Z,25.77
2022-11-28T00:28:52.770Z,25.80
2022-11-28T00:31:24.344Z,23.42
2022-11-28T00:33:51.749Z,25.85
2022-11-28T00:36:20.209Z,21.33
2022-11-28T00:38:47.424Z,21.73
2022-11-28T00:41:18.370Z,21.15
2022-11-28T00:43:46.965Z,19.83
2022-11-28T00:46:16.558Z,19.88
2022-11-28T00:48:44.363Z,19.50
2022-11-28T00:51:19.791Z,21.05
2022-11-28T00:53:49.413Z,21.73
2022-11-28T00:56:21.318Z,21.38
2022-11-28T00:58:51.320Z,23.33
2022-11-28T01:01:27.331Z,21.65
2022-11-28T01:03:58.684Z,22.17
2022-11-28T01:06:31.741Z,20.70
2022-11-28T01:09:02.404Z,21.35
2022-11-28T01:11:30.381Z,20.58
2022-11-28T01:14:00.127Z,22.35
2022-11-28T01:16:28.610Z,23.52
2022-11-28T01:18:55.535Z,25.33
2022-11-28T01:21:23.934Z,23.15
2022-11-28T01:23:51.147Z,23.55
2022-11-28T01:26:26.750Z,22.80
2022-11-28T01:28:54.900Z,22.23
2022-11-28T01:31:28.761Z,23.35
2022-11-28T01:33:57.106Z,21.42
2022-11-28T01:36:25.232Z,22.83
2022-11-28T01:38:53.512Z,20.95
2022-11-28T01:41:25.761Z,20.42
2022-11-28T01:44:29.917Z,21.40
2022-11-28T01:46:57.037Z,19.83
2022-11-28T01:49:36.055Z,20.13
2022-11-28T01:52:14.713Z,19.73
2022-11-28T01:54:46.199Z,18.65
2022-11-28T01:57:21.791Z,18.65
2022-11-28T02:00:05.466Z,17.23
2022-11-28T02:02:46.358Z,18.95
2022-11-28T02:05:14.617Z,18.85
2022-11-28T02:07:44.093Z,19.10
2022-11-28T02:10:18.034Z,18.40
2022-11-28T02:13:11.274Z,18.20
2022-11-28T02:15:55.774Z,19.80
2022-11-28T02:18:58.550Z,19.25
2022-11-28T02:21:54.181Z,18.15
2022-11-28T02:24:43.270Z,16.45
2022-11-28T02:27:28.575Z,17.88
2022-11-28T02:32:55.449Z,16.20
2022-11-28T02:35:39.261Z,16.67
2022-11-28T02:38:48.876Z,15.93
2022-11-28T02:41:34.823Z,16.55
2022-11-28T02:44:14.485Z,16.33
2022-11-28T02:46:56.672Z,16.58
2022-11-28T02:49:34.080Z,17.77
2022-11-28T02:52:09.801Z,20.23
2022-11-28T02:54:39.494Z,19.30
2022-11-28T02:57:08.243Z,19.60
2022-11-28T02:59:38.186Z,16.83
2022-11-28T03:02:33.992Z,19.63
2022-11-28T03:05:42.466Z,18.55
2022-11-28T03:08:36.543Z,18.17
2022-11-28T03:11:44.450Z,18.55
2022-11-28T03:14:59.725Z,18.13
2022-11-28T03:18:11.492Z,18.40
2022-11-28T03:21:31.939Z,19.60
2022-11-28T03:24:07.110Z,18.70
2022-11-28T03:26:54.571Z,17.50
2022-11-28T03:29:33.597Z,17.80
2022-11-28T03:32:06.965Z,16.02
2022-11-28T03:34:41.348Z,16.52
2022-11-28T03:37:20.699Z,15.77
2022-11-28T03:39:57.618Z,17.70
2022-11-28T03:42:29.836Z,17.50
2022-11-28T03:45:24.344Z,17.15
2022-11-28T03:48:00.983Z,17.67
2022-11-28T03:50:40.626Z,17.17
2022-11-28T03:53:20.575Z,16.73
2022-11-28T03:56:20.040Z,17.73
2022-11-28T03:59:00.466Z,17.05
2022-11-28T04:01:41.286Z,15.95
2022-11-28T04:04:25.155Z,16.05
2022-11-28T04:07:28.392Z,16.13
2022-11-28T04:10:34.727Z,17.45
2022-11-28T04:13:11.085Z,18.58
2022-11-28T04:15:59.548Z,16.55
2022-11-28T04:19:01.467Z,16.35
2022-11-28T04:21:43.679Z,16.35
2022-11-28T04:24:23.360Z,17.85
2022-11-28T04:27:05.492Z,16.33
2022-11-28T04:29:39.448Z,16.38
2022-11-28T04:32:11.649Z,16.42
2022-11-28T04:34:45.320Z,15.27
2022-11-28T04:37:15.995Z,17.00
2022-11-28T04:39:48.552Z,16.05
2022-11-28T04:42:23.798Z,15.05
2022-11-28T04:45:12.762Z,15.90
2022-11-28T04:47:40.049Z,16.70
2022-11-28T04:50:08.189Z,15.80
2022-11-28T04:53:09.522Z,17.33
2022-11-28T04:55:49.078Z,17.00
2022-11-28T04:58:26.146Z,17.92
2022-11-28T05:00:56.043Z,18.15
2022-11-28T05:03:28.656Z,15.68
2022-11-28T05:05:55.657Z,16.60
2022-11-28T05:08:22.953Z,18.85
2022-11-28T05:10:49.963Z,19.15
2022-11-28T05:13:17.146Z,17.73
2022-11-28T05:15:44.022Z,19.52
2022-11-28T05:18:11.154Z,21.52
2022-11-28T05:20:39.254Z,17.88
2022-11-28T05:23:07.015Z,17.65
2022-11-28T05:25:33.880Z,17.65
2022-11-28T05:28:01.181Z,18.38
2022-11-28T05:30:28.129Z,17.23
2022-11-28T05:32:55.750Z,17.00
2022-11-28T05:35:23.465Z,17.13
2022-11-28T05:37:50.510Z,17.48
2022-11-28T05:40:17.445Z,16.30
2022-11-28T05:42:45.220Z,16.17
2022-11-28T05:45:12.040Z,16.00
2022-11-28T05:47:39.202Z,15.23
2022-11-28T05:50:08.093Z,14.43
2022-11-28T05:52:35.761Z,14.57
2022-11-28T05:55:02.673Z,13.60
2022-11-28T05:57:32.132Z,14.50
2022-11-28T05:59:59.047Z,14.52
2022-11-28T06:02:26.242Z,13.43
2022-11-28T06:04:53.255Z,13.63
2022-11-28T06:07:20.492Z,13.73
2022-11-28T06:09:47.626Z,14.23
2022-11-28T06:12:14.704Z,14.20
2022-11-28T06:14:41.535Z,14.65
2022-11-28T06:17:08.610Z,13.23
2022-11-28T06:19:35.461Z,14.60
2022-11-28T06:22:02.711Z,14.20
2022-11-28T06:24:29.619Z,13.10
2022-11-28T06:26:56.906Z,12.82
2022-11-28T06:29:23.730Z,13.23
2022-11-28T06:31:50.954Z,13.57
2022-11-28T06:34:17.936Z,14.82
2022-11-28T06:36:45.318Z,13.45
2022-11-28T06:39:15.544Z,14.63
2022-11-28T06:41:43.586Z,13.13
2022-11-28T06:44:17.736Z,17.83
2022-11-28T06:46:45.307Z,14.30
2022-11-28T06:49:13.554Z,14.55
2022-11-28T06:51:42.629Z,14.65
2022-11-28T06:54:10.066Z,13.48
2022-11-28T06:56:39.854Z,15.20
2022-11-28T06:59:07.214Z,14.10
2022-11-28T07:01:34.601Z,13.25
2022-11-28T07:04:02.180Z,14.68
2022-11-28T07:06:29.518Z,13.70
2022-11-28T07:08:58.740Z,13.63
2022-11-28T07:11:30.891Z,13.30
2022-11-28T07:14:01.706Z,12.35
2022-11-28T07:16:32.547Z,13.60
2022-11-28T07:19:00.056Z,14.82
2022-11-28T07:21:29.452Z,14.20
2022-11-28T07:23:59.318Z,14.00
2022-11-28T07:26:26.973Z,14.18
2022-11-28T07:28:56.041Z,13.38
2022-11-28T07:31:32.029Z,13.52
2022-11-28T07:34:03.299Z,13.93
2022-11-28T07:36:31.566Z,13.25
2022-11-28T07:39:01.232Z,13.27
2022-11-28T07:41:29.389Z,13.52
2022-11-28T07:44:02.457Z,15.38
2022-11-28T07:46:32.154Z,13.02
2022-11-28T07:48:59.848Z,13.85
2022-11-28T07:51:33.478Z,14.20
2022-11-28T07:54:02.907Z,14.15
2022-11-28T07:57:04.571Z,15.05
2022-11-28T07:59:22.516Z,14.48
2022-11-28T08:01:50.196Z,14.95
2022-11-28T08:04:17.279Z,14.00
2022-11-28T08:06:44.807Z,13.90
2022-11-28T08:09:12.225Z,13.70
2022-11-28T08:11:40.520Z,14.60
2022-11-28T08:14:07.395Z,13.77
2022-11-28T08:16:34.984Z,15.60
2022-11-28T08:19:02.777Z,14.68
2022-11-28T08:21:33.723Z,14.85
2022-11-28T08:24:02.694Z,14.45
2022-11-28T08:26:32.492Z,14.82
2022-11-28T08:29:02.093Z,13.73
2022-11-28T08:31:37.432Z,16.20
2022-11-28T08:34:09.662Z,15.35
2022-11-28T08:36:37.834Z,15.38
2022-11-28T08:41:59.940Z,14.57
2022-11-28T08:44:30.280Z,15.02
2022-11-28T08:46:57.979Z,15.25
2022-11-28T08:49:24.851Z,14.88
2022-11-28T08:51:52.060Z,15.50
2022-11-28T08:54:18.866Z,15.05
2022-11-28T08:56:48.593Z,15.75
2022-11-28T08:59:16.024Z,17.02
2022-11-28T09:01:43.315Z,16.23
2022-11-28T09:04:10.419Z,15.48
2022-11-28T09:06:41.119Z,15.82
2022-11-28T09:09:09.129Z,14.95
2022-11-28T09:11:36.946Z,14.27
2022-11-28T09:14:03.852Z,16.00
2022-11-28T09:16:31.391Z,13.90
2022-11-28T09:18:59.655Z,15.38
2022-11-28T09:21:27.166Z,15.40
2022-11-28T09:23:56.648Z,15.40
2022-11-28T09:26:25.488Z,15.88
2022-11-28T09:28:53.903Z,15.77
2022-11-28T09:31:22.776Z,17.50
2022-11-28T09:33:50.401Z,15.43
2022-11-28T09:36:21.629Z,15.25
2022-11-28T09:38:48.793Z,16.05
2022-11-28T09:41:44.284Z,16.85
2022-11-28T09:44:38.827Z,16.48
2022-11-28T09:47:18.821Z,15.90
2022-11-28T09:50:15.412Z,15.60
2022-11-28T09:53:23.208Z,16.33
2022-11-28T09:55:55.954Z,16.08
2022-11-28T09:58:53.919Z,14.57
2022-11-28T10:01:42.287Z,15.02
2022-11-28T10:04:21.522Z,16.02
2022-11-28T10:07:19.651Z,15.60
2022-11-28T10:10:02.833Z,15.50
2022-11-28T10:13:03.928Z,15.75
2022-11-28T10:16:07.702Z,15.88
2022-11-28T10:18:47.857Z,16.23
2022-11-28T10:21:31.358Z,15.52
2022-11-28T10:24:05.094Z,16.60
2022-11-28T10:26:38.347Z,15.68
2022-11-28T10:29:29.735Z,15.38
2022-11-28T10:32:04.805Z,15.52
2022-11-28T10:34:53.293Z,16.38
2022-11-28T10:37:31.160Z,15.00
2022-11-28T10:40:54.471Z,16.50
2022-11-28T10:43:33.499Z,14.50
2022-11-28T10:46:57.510Z,16.42
2022-11-28T10:50:04.682Z,15.55
2022-11-28T10:52:47.804Z,15.07
2022-11-28T10:56:08.433Z,16.40
2022-11-28T10:59:04.463Z,15.25
2022-11-28T11:01:43.737Z,15.15
2022-11-28T11:04:26.682Z,16.23
2022-11-28T11:07:21.729Z,15.90
2022-11-28T11:09:52.200Z,15.25
2022-11-28T11:12:32.336Z,16.67
2022-11-28T11:14:59.236Z,16.20
2022-11-28T11:17:37.966Z,16.30
2022-11-28T11:20:32.236Z,14.85
2022-11-28T11:23:22.008Z,16.33
2022-11-28T11:25:55.322Z,16.65
2022-11-28T11:28:28.197Z,15.50
2022-11-28T11:31:05.878Z,14.35
2022-11-28T11:33:38.269Z,15.40
2022-11-28T11:36:29.243Z,16.08
2022-11-28T11:39:15.874Z,16.02
2022-11-28T11:42:09.506Z,15.93
2022-11-28T11:44:38.641Z,15.38
2022-11-28T11:47:08.016Z,17.42
2022-11-28T11:49:44.068Z,16.58
2022-11-28T11:52:28.064Z,15.70
2022-11-28T11:54:58.312Z,15.90
2022-11-28T11:57:38.034Z,15.27
2022-11-28T12:00:14.927Z,15.18
2022-11-28T12:02:57.083Z,14.63
2022-11-28T12:06:12.802Z,15.32
2022-11-28T12:08:45.027Z,16.15
2022-11-28T12:11:34.165Z,14.85
2022-11-28T12:14:27.489Z,13.70
2022-11-28T12:17:57.141Z,13.68
2022-11-28T12:20:58.517Z,15.73
2022-11-28T12:23:52.959Z,14.95
2022-11-28T12:26:41.835Z,13.30
2022-11-28T12:29:27.725Z,15.48
2022-11-28T12:32:26.039Z,14.98
2022-11-28T12:35:30.035Z,13.55
2022-11-28T12:38:44.642Z,18.85
2022-11-28T12:41:30.702Z,14.20
2022-11-28T12:44:28.220Z,13.63
2022-11-28T12:47:06.371Z,14.48
2022-11-28T12:50:18.085Z,15.40
2022-11-28T12:53:13.030Z,14.35
2022-11-28T12:56:07.015Z,14.55
2022-11-28T12:58:55.209Z,16.75
2022-11-28T13:02:06.685Z,16.35
2022-11-28T13:04:56.685Z,14.73
2022-11-28T13:07:48.817Z,15.35
2022-11-28T13:10:39.360Z,16.33
2022-11-28T13:13:39.860Z,15.65
2022-11-28T13:16:33.648Z,16.23
2022-11-28T13:19:07.032Z,14.30
2022-11-28T13:21:59.898Z,15.82
2022-11-28T13:24:42.456Z,14.55
2022-11-28T13:27:33.314Z,15.80
2022-11-28T13:30:24.445Z,14.50
2022-11-28T13:33:07.543Z,14.23
2022-11-28T13:35:35.401Z,15.35
2022-11-28T13:38:50.495Z,15.20
2022-11-28T13:42:21.445Z,14.32
2022-11-28T13:44:50.340Z,14.77
2022-11-28T13:47:23.050Z,13.75
2022-11-28T13:49:50.872Z,14.60
2022-11-28T13:52:17.714Z,14.38
2022-11-28T13:54:50.837Z,15.07
2022-11-28T13:57:30.402Z,14.73
2022-11-28T14:00:19.591Z,14.05
2022-11-28T14:03:00.108Z,15.00
2022-11-28T14:05:41.672Z,13.93
2022-11-28T14:08:28.058Z,14.23
2022-11-28T14:11:33.452Z,17.77
2022-11-28T14:14:45.696Z,14.57
2022-11-28T14:17:28.262Z,14.40
2022-11-28T14:20:05.917Z,15.82
2022-11-28T14:23:09.035Z,13.60
2022-11-28T14:25:49.678Z,16.77
2022-11-28T14:28:27.318Z,18.23
2022-11-28T14:31:32.107Z,16.00
2022-11-28T14:34:22.130Z,16.42
2022-11-28T14:37:21.286Z,16.17
2022-11-28T14:39:53.168Z,15.25
2022-11-28T14:45:44.954Z,17.85
2022-11-28T14:48:23.856Z,17.33
2022-11-28T14:51:00.641Z,16.42
2022-11-28T14:53:34.810Z,16.25
2022-11-28T14:56:25.846Z,17.65
2022-11-28T14:59:00.218Z,17.58
2022-11-28T15:02:13.783Z,14.82
2022-11-28T15:04:54.854Z,16.08
2022-11-28T15:08:16.030Z,16.50
2022-11-28T15:11:08.453Z,22.40
2022-11-28T15:14:05.986Z,16.33
2022-11-28T15:16:35.339Z,17.60
2022-11-28T15:19:45.192Z,15.90
2022-11-28T15:22:41.763Z,17.13
2022-11-28T15:25:21.290Z,16.90
2022-11-28T15:27:49.100Z,16.02
2022-11-28T15:30:26.758Z,16.75
2022-11-28T15:33:00.942Z,15.73
2022-11-28T15:35:29.150Z,15.80
2022-11-28T15:37:58.494Z,15.63
2022-11-28T15:40:37.467Z,17.67
2022-11-28T15:43:12.486Z,16.50
2022-11-28T15:45:42.405Z,15.60
2022-11-28T15:48:39.864Z,16.08
2022-11-28T15:51:09.518Z,15.63
2022-11-28T15:53:42.438Z,14.95
2022-11-28T15:56:15.623Z,15.98
2022-11-28T15:58:48.961Z,15.13
2022-11-28T16:04:05.241Z,17.73
2022-11-28T16:06:39.380Z,17.73
2022-11-28T16:09:20.077Z,16.65
2022-11-28T16:11:53.096Z,18.48
2022-11-28T16:14:37.608Z,17.77
2022-11-28T16:17:20.619Z,18.10
2022-11-28T16:19:52.878Z,19.30
2022-11-28T16:22:27.495Z,17.33
2022-11-28T16:24:56.102Z,18.73
2022-11-28T16:27:38.177Z,17.83
2022-11-28T16:30:48.041Z,20.23
2022-11-28T16:33:43.663Z,18.33
2022-11-28T16:36:37.719Z,16.10
2022-11-28T16:39:15.741Z,15.50
2022-11-28T16:41:52.230Z,17.23
2022-11-28T16:44:23.813Z,16.15
2022-11-28T16:46:58.923Z,15.20
2022-11-28T16:50:14.069Z,16.92
2022-11-28T16:52:54.897Z,16.60
2022-11-28T16:55:41.980Z,19.02
2022-11-28T16:58:21.694Z,15.48
2022-11-28T17:01:02.364Z,18.02
2022-11-28T17:04:02.713Z,17.85
2022-11-28T17:06:37.613Z,17.10
2022-11-28T17:09:12.213Z,17.42
2022-11-28T17:11:46.405Z,17.10
2022-11-28T17:14:14.693Z,17.70
2022-11-28T17:16:43.353Z,16.70
2022-11-28T17:19:10.390Z,19.45
2022-11-28T17:21:43.654Z,17.00
2022-11-28T17:24:33.968Z,18.05
2022-11-28T17:27:02.174Z,16.38
2022-11-28T17:29:30.048Z,15.75
2022-11-28T17:31:59.001Z,16.65
2022-11-28T17:34:32.712Z,18.70
2022-11-28T17:37:03.058Z,17.48
2022-11-28T17:39:30.274Z,17.23
2022-11-28T17:41:59.189Z,17.63
2022-11-28T17:44:29.349Z,17.23
2022-11-28T17:46:58.636Z,18.00
2022-11-28T17:49:25.637Z,18.05
2022-11-28T17:51:55.257Z,17.65
2022-11-28T17:54:25.048Z,17.83
2022-11-28T17:56:54.059Z,19.38
2022-11-28T17:59:24.278Z,17.98
2022-11-28T18:01:51.679Z,16.88
2022-11-28T18:04:19.501Z,19.23
2022-11-28T18:06:47.821Z,19.40
2022-11-28T18:09:46.534Z,19.38
2022-11-28T18:12:27.192Z,19.08
2022-11-28T18:14:54.571Z,19.50
2022-11-28T18:17:21.765Z,19.98
2022-11-28T18:19:52.027Z,20.23
2022-11-28T18:22:22.012Z,20.42
2022-11-28T18:24:48.989Z,18.75
2022-11-28T18:27:16.293Z,20.20
2022-11-28T18:29:43.773Z,18.98
2022-11-28T18:32:11.439Z,20.17
2022-11-28T18:34:39.890Z,20.77
2022-11-28T18:37:07.345Z,22.77
2022-11-28T18:39:34.959Z,21.15
2022-11-28T18:42:02.246Z,19.75
2022-11-28T18:44:29.314Z,19.63
2022-11-28T18:46:56.443Z,18.42
2022-11-28T18:49:23.456Z,18.45
2022-11-28T18:51:51.380Z,18.48
2022-11-28T18:54:21.445Z,19.85
2022-11-28T18:56:49.498Z,17.92
2022-11-28T18:59:16.403Z,18.40
2022-11-28T19:01:43.612Z,17.73
2022-11-28T19:04:13.387Z,17.85
2022-11-28T19:06:42.917Z,19.33
2022-11-28T19:09:14.730Z,18.73
2022-11-28T19:11:44.365Z,18.20
2022-11-28T19:14:18.047Z,17.52
2022-11-28T19:16:47.104Z,19.10
2022-11-28T19:19:17.214Z,18.98
2022-11-28T19:21:44.984Z,19.75
2022-11-28T19:24:12.963Z,18.58
2022-11-28T19:26:40.669Z,18.73
2022-11-28T19:29:08.154Z,19.45
2022-11-28T19:31:37.505Z,20.27
2022-11-28T19:34:11.949Z,18.65
2022-11-28T19:36:49.219Z,17.90
2022-11-28T19:39:22.663Z,18.00
2022-11-28T19:41:52.730Z,19.25
2022-11-28T19:44:24.646Z,19.98
2022-11-28T19:46:52.891Z,20.05
2022-11-28T19:49:23.827Z,18.55
2022-11-28T19:51:54.404Z,20.65
2022-11-28T19:54:21.783Z,19.92
2022-11-28T19:56:59.771Z,20.75
2022-11-28T19:59:27.685Z,18.48
2022-11-28T20:01:54.949Z,20.65
2022-11-28T20:04:22.531Z,18.67
2022-11-28T20:06:49.696Z,20.38
2022-11-28T20:09:16.541Z,20.88
2022-11-28T20:11:45.087Z,22.17
2022-11-28T20:14:19.300Z,21.77
2022-11-28T20:16:47.307Z,19.73
2022-11-28T20:19:15.075Z,22.05
2022-11-28T20:21:42.490Z,20.95
2022-11-28T20:24:10.756Z,20.10
2022-11-28T20:26:41.703Z,20.15
2022-11-28T20:29:12.277Z,19.52
2022-11-28T20:31:45.348Z,19.48
2022-11-28T20:34:17.696Z,19.80
2022-11-28T20:36:45.337Z,20.17
2022-11-28T20:39:13.464Z,19.83
2022-11-28T20:41:40.712Z,20.30
2022-11-28T20:44:08.282Z,20.90
2022-11-28T20:46:35.819Z,21.88
2022-11-28T20:49:07.038Z,20.65
2022-11-28T20:51:35.883Z,21.45
2022-11-28T20:54:05.585Z,20.05
2022-11-28T20:57:04.959Z,20.05
2022-11-28T20:59:26.508Z,21.73
2022-11-28T21:01:53.975Z,19.38
2022-11-28T21:04:20.960Z,20.00
2022-11-28T21:06:49.432Z,20.67
2022-11-28T21:09:18.507Z,21.58
2022-11-28T21:12:02.842Z,20.52
2022-11-28T21:14:29.752Z,20.40
2022-11-28T21:16:58.589Z,20.33
2022-11-28T21:19:25.919Z,20.55
2022-11-28T21:21:53.229Z,20.98
2022-11-28T21:24:20.185Z,19.70
2022-11-28T21:26:53.560Z,22.27
2022-11-28T21:29:23.330Z,22.97
2022-11-28T21:31:51.081Z,20.98
2022-11-28T21:34:19.539Z,21.15
2022-11-28T21:36:47.073Z,21.33
2022-11-28T21:39:18.781Z,21.50
2022-11-28T21:41:46.411Z,21.35
2022-11-28T21:44:13.293Z,22.08
2022-11-28T21:46:40.580Z,21.17
2022-11-28T21:49:07.803Z,20.55
2022-11-28T21:51:35.143Z,20.85
2022-11-28T21:54:02.810Z,21.27
2022-11-28T21:56:30.383Z,19.58
2022-11-28T21:58:57.314Z,19.48
2022-11-28T22:01:24.548Z,20.75
2022-11-28T22:03:51.576Z,22.15
2022-11-28T22:06:24.440Z,22.10
2022-11-28T22:08:53.665Z,21.13
2022-11-28T22:11:22.246Z,19.73
2022-11-28T22:13:50.083Z,20.70
2022-11-28T22:16:19.891Z,19.27
2022-11-28T22:18:48.975Z,20.73
2022-11-28T22:24:04.677Z,21.52
2022-11-28T22:26:32.451Z,20.20
2022-11-28T22:28:59.503Z,20.70
2022-11-28T22:31:26.885Z,21.00
2022-11-28T22:33:53.734Z,19.73
2022-11-28T22:36:22.584Z,21.95
2022-11-28T22:38:55.838Z,22.50
2022-11-28T22:41:28.820Z,21.23
2022-11-28T22:44:00.301Z,19.90
2022-11-28T22:46:28.570Z,19.15
2022-11-28T22:48:56.162Z,20.50
2022-11-28T22:51:26.054Z,18.90
2022-11-28T22:53:58.973Z,19.83
2022-11-28T22:56:27.394Z,18.65
2022-11-28T22:58:54.859Z,19.88
2022-11-28T23:01:29.213Z,22.67
2022-11-28T23:30:46.533Z,19.92
2022-11-28T23:33:17.727Z,20.50
2022-11-28T23:35:45.602Z,18.80
2022-11-28T23:38:15.719Z,19.73
2022-11-28T23:40:42.838Z,17.02
2022-11-28T23:43:10.234Z,17.73
2022-11-28T23:45:37.701Z,18.65
2022-11-28T23:48:05.450Z,19.25
2022-11-28T23:50:34.587Z,18.17
2022-11-28T23:53:01.726Z,19.08
2022-11-28T23:55:28.555Z,19.05
2022-11-28T23:57:55.886Z,20.60
